sensor_id;sensor_type;location;lat;lon;timestamp;temperature;humidity
66928;DHT22;59882;45.624;11.698;2023-08-08T00:01:56;21.50;47.80
66928;DHT22;59882;45.624;11.698;2023-08-08T00:04:21;21.40;47.80
66928;DHT22;59882;45.624;11.698;2023-08-08T00:06:47;21.40;48.10
66928;DHT22;59882;45.624;11.698;2023-08-08T00:09:12;21.40;48.30
66928;DHT22;59882;45.624;11.698;2023-08-08T00:11:39;21.40;48.20
66928;DHT22;59882;45.624;11.698;2023-08-08T00:14:04;21.40;48.40
66928;DHT22;59882;45.624;11.698;2023-08-08T00:16:30;21.40;48.30
66928;DHT22;59882;45.624;11.698;2023-08-08T00:18:56;21.40;48.20
66928;DHT22;59882;45.624;11.698;2023-08-08T00:21:22;21.30;48.30
66928;DHT22;59882;45.624;11.698;2023-08-08T00:23:47;21.30;48.30
66928;DHT22;59882;45.624;11.698;2023-08-08T00:26:13;21.30;48.30
66928;DHT22;59882;45.624;11.698;2023-08-08T00:28:38;21.30;48.40
66928;DHT22;59882;45.624;11.698;2023-08-08T00:31:04;21.30;48.30
66928;DHT22;59882;45.624;11.698;2023-08-08T00:33:30;21.30;48.50
66928;DHT22;59882;45.624;11.698;2023-08-08T00:35:55;21.20;48.60
66928;DHT22;59882;45.624;11.698;2023-08-08T00:38:21;21.20;48.60
66928;DHT22;59882;45.624;11.698;2023-08-08T00:40:46;21.20;48.90
66928;DHT22;59882;45.624;11.698;2023-08-08T00:43:12;21.20;48.50
66928;DHT22;59882;45.624;11.698;2023-08-08T00:45:40;21.20;48.60
66928;DHT22;59882;45.624;11.698;2023-08-08T00:48:07;21.20;48.70
66928;DHT22;59882;45.624;11.698;2023-08-08T00:50:34;21.20;48.90
66928;DHT22;59882;45.624;11.698;2023-08-08T00:53:00;21.10;48.90
66928;DHT22;59882;45.624;11.698;2023-08-08T00:55:26;21.10;49.00
66928;DHT22;59882;45.624;11.698;2023-08-08T00:57:52;21.10;48.90
66928;DHT22;59882;45.624;11.698;2023-08-08T01:00:18;21.10;48.80
66928;DHT22;59882;45.624;11.698;2023-08-08T01:02:43;21.10;48.70
66928;DHT22;59882;45.624;11.698;2023-08-08T01:05:10;21.10;48.50
66928;DHT22;59882;45.624;11.698;2023-08-08T01:10:34;21.00;48.20
66928;DHT22;59882;45.624;11.698;2023-08-08T01:13:08;20.90;48.00
66928;DHT22;59882;45.624;11.698;2023-08-08T01:15:36;20.90;47.90
66928;DHT22;59882;45.624;11.698;2023-08-08T01:18:08;20.90;48.00
66928;DHT22;59882;45.624;11.698;2023-08-08T01:20:35;20.90;47.80
66928;DHT22;59882;45.624;11.698;2023-08-08T01:25:37;20.90;47.30
66928;DHT22;59882;45.624;11.698;2023-08-08T01:28:03;20.90;47.50
66928;DHT22;59882;45.624;11.698;2023-08-08T01:30:30;20.90;47.40
66928;DHT22;59882;45.624;11.698;2023-08-08T01:32:56;20.90;47.20
66928;DHT22;59882;45.624;11.698;2023-08-08T01:35:23;20.90;46.90
66928;DHT22;59882;45.624;11.698;2023-08-08T01:37:56;20.80;46.40
66928;DHT22;59882;45.624;11.698;2023-08-08T01:40:25;20.80;46.30
66928;DHT22;59882;45.624;11.698;2023-08-08T01:42:51;20.80;45.70
66928;DHT22;59882;45.624;11.698;2023-08-08T01:45:18;20.70;45.70
66928;DHT22;59882;45.624;11.698;2023-08-08T01:47:53;20.70;45.70
66928;DHT22;59882;45.624;11.698;2023-08-08T01:50:20;20.70;45.10
66928;DHT22;59882;45.624;11.698;2023-08-08T01:52:46;20.70;45.10
66928;DHT22;59882;45.624;11.698;2023-08-08T01:55:12;20.60;45.10
66928;DHT22;59882;45.624;11.698;2023-08-08T01:57:38;20.60;44.80
66928;DHT22;59882;45.624;11.698;2023-08-08T02:00:05;20.60;44.40
66928;DHT22;59882;45.624;11.698;2023-08-08T02:02:31;20.50;44.60
66928;DHT22;59882;45.624;11.698;2023-08-08T02:04:57;20.50;44.40
66928;DHT22;59882;45.624;11.698;2023-08-08T02:07:23;20.40;44.20
66928;DHT22;59882;45.624;11.698;2023-08-08T02:09:48;20.40;44.30
66928;DHT22;59882;45.624;11.698;2023-08-08T02:12:16;20.40;44.20
66928;DHT22;59882;45.624;11.698;2023-08-08T02:14:42;20.40;44.00
66928;DHT22;59882;45.624;11.698;2023-08-08T02:17:07;20.30;44.00
66928;DHT22;59882;45.624;11.698;2023-08-08T02:19:33;20.30;43.40
66928;DHT22;59882;45.624;11.698;2023-08-08T02:21:59;20.30;43.50
66928;DHT22;59882;45.624;11.698;2023-08-08T02:24:24;20.30;43.50
66928;DHT22;59882;45.624;11.698;2023-08-08T02:26:50;20.20;43.50
66928;DHT22;59882;45.624;11.698;2023-08-08T02:29:15;20.10;43.70
66928;DHT22;59882;45.624;11.698;2023-08-08T02:31:41;20.00;43.90
66928;DHT22;59882;45.624;11.698;2023-08-08T02:34:07;20.00;44.10
66928;DHT22;59882;45.624;11.698;2023-08-08T02:36:32;19.90;44.60
66928;DHT22;59882;45.624;11.698;2023-08-08T02:38:58;19.90;44.70
66928;DHT22;59882;45.624;11.698;2023-08-08T02:41:24;19.90;44.10
66928;DHT22;59882;45.624;11.698;2023-08-08T02:43:50;19.80;44.00
66928;DHT22;59882;45.624;11.698;2023-08-08T02:46:16;19.80;44.40
66928;DHT22;59882;45.624;11.698;2023-08-08T02:48:41;19.80;44.60
66928;DHT22;59882;45.624;11.698;2023-08-08T02:51:07;19.80;44.50
66928;DHT22;59882;45.624;11.698;2023-08-08T02:53:33;19.80;44.40
66928;DHT22;59882;45.624;11.698;2023-08-08T02:55:58;19.70;44.60
66928;DHT22;59882;45.624;11.698;2023-08-08T02:58:24;19.80;44.60
66928;DHT22;59882;45.624;11.698;2023-08-08T03:00:49;19.80;44.60
66928;DHT22;59882;45.624;11.698;2023-08-08T03:03:15;19.70;44.60
66928;DHT22;59882;45.624;11.698;2023-08-08T03:05:41;19.60;44.50
66928;DHT22;59882;45.624;11.698;2023-08-08T03:08:06;19.60;45.10
66928;DHT22;59882;45.624;11.698;2023-08-08T03:10:32;19.50;46.00
66928;DHT22;59882;45.624;11.698;2023-08-08T03:12:58;19.50;46.10
66928;DHT22;59882;45.624;11.698;2023-08-08T03:15:23;19.40;47.00
66928;DHT22;59882;45.624;11.698;2023-08-08T03:17:49;19.40;46.80
66928;DHT22;59882;45.624;11.698;2023-08-08T03:20:15;19.40;47.40
66928;DHT22;59882;45.624;11.698;2023-08-08T03:22:40;19.30;47.20
66928;DHT22;59882;45.624;11.698;2023-08-08T03:25:06;19.30;46.90
66928;DHT22;59882;45.624;11.698;2023-08-08T03:27:32;19.20;47.00
66928;DHT22;59882;45.624;11.698;2023-08-08T03:29:58;19.10;47.20
66928;DHT22;59882;45.624;11.698;2023-08-08T03:32:23;19.10;47.50
66928;DHT22;59882;45.624;11.698;2023-08-08T03:34:49;19.10;47.50
66928;DHT22;59882;45.624;11.698;2023-08-08T03:37:15;19.00;47.90
66928;DHT22;59882;45.624;11.698;2023-08-08T03:39:40;18.90;47.70
66928;DHT22;59882;45.624;11.698;2023-08-08T03:42:06;18.90;47.70
66928;DHT22;59882;45.624;11.698;2023-08-08T03:44:32;18.90;47.80
66928;DHT22;59882;45.624;11.698;2023-08-08T03:46:58;18.90;48.00
66928;DHT22;59882;45.624;11.698;2023-08-08T03:49:23;18.90;48.00
66928;DHT22;59882;45.624;11.698;2023-08-08T03:51:49;18.90;48.00
66928;DHT22;59882;45.624;11.698;2023-08-08T03:54:15;18.90;47.90
66928;DHT22;59882;45.624;11.698;2023-08-08T03:56:40;18.90;47.70
66928;DHT22;59882;45.624;11.698;2023-08-08T03:59:06;19.00;47.40
66928;DHT22;59882;45.624;11.698;2023-08-08T04:01:32;19.00;47.60
66928;DHT22;59882;45.624;11.698;2023-08-08T04:03:58;19.00;47.60
66928;DHT22;59882;45.624;11.698;2023-08-08T04:06:24;19.00;47.40
66928;DHT22;59882;45.624;11.698;2023-08-08T04:08:50;19.00;47.60
66928;DHT22;59882;45.624;11.698;2023-08-08T04:11:16;19.00;47.30
66928;DHT22;59882;45.624;11.698;2023-08-08T04:13:42;19.00;47.20
66928;DHT22;59882;45.624;11.698;2023-08-08T04:16:07;19.00;47.40
66928;DHT22;59882;45.624;11.698;2023-08-08T04:18:33;19.00;47.40
66928;DHT22;59882;45.624;11.698;2023-08-08T04:20:59;19.00;47.20
66928;DHT22;59882;45.624;11.698;2023-08-08T04:23:24;19.00;47.20
66928;DHT22;59882;45.624;11.698;2023-08-08T04:25:52;19.00;47.40
66928;DHT22;59882;45.624;11.698;2023-08-08T04:28:18;19.10;47.80
66928;DHT22;59882;45.624;11.698;2023-08-08T04:30:44;19.10;47.30
66928;DHT22;59882;45.624;11.698;2023-08-08T04:33:09;19.10;47.50
66928;DHT22;59882;45.624;11.698;2023-08-08T04:35:35;19.10;47.50
66928;DHT22;59882;45.624;11.698;2023-08-08T04:38:01;19.10;47.40
66928;DHT22;59882;45.624;11.698;2023-08-08T04:40:27;19.20;47.20
66928;DHT22;59882;45.624;11.698;2023-08-08T04:42:53;19.20;47.30
66928;DHT22;59882;45.624;11.698;2023-08-08T04:45:18;19.20;47.50
66928;DHT22;59882;45.624;11.698;2023-08-08T04:47:44;19.30;47.20
66928;DHT22;59882;45.624;11.698;2023-08-08T04:50:10;19.30;47.20
66928;DHT22;59882;45.624;11.698;2023-08-08T04:52:36;19.30;47.30
66928;DHT22;59882;45.624;11.698;2023-08-08T04:55:01;19.40;47.50
66928;DHT22;59882;45.624;11.698;2023-08-08T04:57:27;19.40;47.60
66928;DHT22;59882;45.624;11.698;2023-08-08T04:59:53;19.40;47.80
66928;DHT22;59882;45.624;11.698;2023-08-08T05:02:18;19.50;48.00
66928;DHT22;59882;45.624;11.698;2023-08-08T05:04:44;19.50;48.10
66928;DHT22;59882;45.624;11.698;2023-08-08T05:07:10;19.50;47.90
66928;DHT22;59882;45.624;11.698;2023-08-08T05:09:35;19.60;47.50
66928;DHT22;59882;45.624;11.698;2023-08-08T05:12:01;19.70;47.30
66928;DHT22;59882;45.624;11.698;2023-08-08T05:14:27;19.70;47.10
66928;DHT22;59882;45.624;11.698;2023-08-08T05:16:53;19.70;47.20
66928;DHT22;59882;45.624;11.698;2023-08-08T05:19:18;19.80;47.30
66928;DHT22;59882;45.624;11.698;2023-08-08T05:21:44;19.80;47.20
66928;DHT22;59882;45.624;11.698;2023-08-08T05:24:09;19.90;47.40
66928;DHT22;59882;45.624;11.698;2023-08-08T05:26:35;19.90;47.40
66928;DHT22;59882;45.624;11.698;2023-08-08T05:29:01;20.00;47.50
66928;DHT22;59882;45.624;11.698;2023-08-08T05:31:26;20.10;48.10
66928;DHT22;59882;45.624;11.698;2023-08-08T05:33:52;20.20;47.70
66928;DHT22;59882;45.624;11.698;2023-08-08T05:36:18;20.20;47.80
66928;DHT22;59882;45.624;11.698;2023-08-08T05:38:43;20.40;48.00
66928;DHT22;59882;45.624;11.698;2023-08-08T05:41:09;20.40;47.60
66928;DHT22;59882;45.624;11.698;2023-08-08T05:43:35;20.40;47.60
66928;DHT22;59882;45.624;11.698;2023-08-08T05:46:00;20.40;47.70
66928;DHT22;59882;45.624;11.698;2023-08-08T05:48:26;20.50;47.60
66928;DHT22;59882;45.624;11.698;2023-08-08T05:50:52;20.60;47.60
66928;DHT22;59882;45.624;11.698;2023-08-08T05:53:17;20.60;47.60
66928;DHT22;59882;45.624;11.698;2023-08-08T05:55:43;20.70;47.90
66928;DHT22;59882;45.624;11.698;2023-08-08T05:58:09;20.70;47.80
66928;DHT22;59882;45.624;11.698;2023-08-08T06:00:35;20.70;48.10
66928;DHT22;59882;45.624;11.698;2023-08-08T06:03:01;20.80;49.10
66928;DHT22;59882;45.624;11.698;2023-08-08T06:05:27;20.80;48.80
66928;DHT22;59882;45.624;11.698;2023-08-08T06:07:53;20.80;48.80
66928;DHT22;59882;45.624;11.698;2023-08-08T06:10:20;20.90;48.70
66928;DHT22;59882;45.624;11.698;2023-08-08T06:12:46;20.90;48.90
66928;DHT22;59882;45.624;11.698;2023-08-08T06:15:12;20.90;48.70
66928;DHT22;59882;45.624;11.698;2023-08-08T06:17:37;20.90;49.20
66928;DHT22;59882;45.624;11.698;2023-08-08T06:20:03;20.90;48.80
66928;DHT22;59882;45.624;11.698;2023-08-08T06:22:30;20.90;49.10
66928;DHT22;59882;45.624;11.698;2023-08-08T06:24:55;21.00;49.20
66928;DHT22;59882;45.624;11.698;2023-08-08T06:27:21;21.00;49.40
66928;DHT22;59882;45.624;11.698;2023-08-08T06:29:46;21.00;49.30
66928;DHT22;59882;45.624;11.698;2023-08-08T06:32:12;21.00;49.30
66928;DHT22;59882;45.624;11.698;2023-08-08T06:34:38;21.10;49.30
66928;DHT22;59882;45.624;11.698;2023-08-08T06:37:03;21.10;49.20
66928;DHT22;59882;45.624;11.698;2023-08-08T06:39:29;21.20;48.90
66928;DHT22;59882;45.624;11.698;2023-08-08T06:41:55;21.20;48.50
66928;DHT22;59882;45.624;11.698;2023-08-08T06:44:21;21.20;48.30
66928;DHT22;59882;45.624;11.698;2023-08-08T06:46:47;21.30;48.30
66928;DHT22;59882;45.624;11.698;2023-08-08T06:49:12;21.30;48.40
66928;DHT22;59882;45.624;11.698;2023-08-08T06:51:38;21.40;48.40
66928;DHT22;59882;45.624;11.698;2023-08-08T06:54:03;21.40;48.00
66928;DHT22;59882;45.624;11.698;2023-08-08T06:56:29;21.50;47.70
66928;DHT22;59882;45.624;11.698;2023-08-08T06:58:55;21.50;47.70
66928;DHT22;59882;45.624;11.698;2023-08-08T07:01:20;21.50;47.80
66928;DHT22;59882;45.624;11.698;2023-08-08T07:03:46;21.60;47.90
66928;DHT22;59882;45.624;11.698;2023-08-08T07:06:17;21.60;47.90
66928;DHT22;59882;45.624;11.698;2023-08-08T07:08:43;21.70;47.80
66928;DHT22;59882;45.624;11.698;2023-08-08T07:11:08;21.70;47.60
66928;DHT22;59882;45.624;11.698;2023-08-08T07:13:34;21.80;47.40
66928;DHT22;59882;45.624;11.698;2023-08-08T07:16:00;21.80;47.30
66928;DHT22;59882;45.624;11.698;2023-08-08T07:18:26;21.90;47.10
66928;DHT22;59882;45.624;11.698;2023-08-08T07:20:52;21.90;46.90
66928;DHT22;59882;45.624;11.698;2023-08-08T07:23:18;21.90;47.10
66928;DHT22;59882;45.624;11.698;2023-08-08T07:25:45;21.90;47.20
66928;DHT22;59882;45.624;11.698;2023-08-08T07:28:12;22.00;47.20
66928;DHT22;59882;45.624;11.698;2023-08-08T07:30:40;22.00;46.90
66928;DHT22;59882;45.624;11.698;2023-08-08T07:33:06;22.10;46.80
66928;DHT22;59882;45.624;11.698;2023-08-08T07:35:34;22.10;47.10
66928;DHT22;59882;45.624;11.698;2023-08-08T07:37:59;22.20;47.00
66928;DHT22;59882;45.624;11.698;2023-08-08T07:40:25;22.30;46.90
66928;DHT22;59882;45.624;11.698;2023-08-08T07:42:51;22.30;46.70
66928;DHT22;59882;45.624;11.698;2023-08-08T07:45:17;22.30;46.80
66928;DHT22;59882;45.624;11.698;2023-08-08T07:47:43;22.40;47.30
66928;DHT22;59882;45.624;11.698;2023-08-08T07:50:08;22.40;47.20
66928;DHT22;59882;45.624;11.698;2023-08-08T07:52:35;22.40;46.40
66928;DHT22;59882;45.624;11.698;2023-08-08T07:55:02;22.50;45.60
66928;DHT22;59882;45.624;11.698;2023-08-08T07:57:27;22.50;45.40
66928;DHT22;59882;45.624;11.698;2023-08-08T07:59:53;22.60;45.50
66928;DHT22;59882;45.624;11.698;2023-08-08T08:02:19;22.60;44.70
66928;DHT22;59882;45.624;11.698;2023-08-08T08:04:44;22.70;44.40
66928;DHT22;59882;45.624;11.698;2023-08-08T08:07:10;22.70;44.40
66928;DHT22;59882;45.624;11.698;2023-08-08T08:09:36;22.70;44.40
66928;DHT22;59882;45.624;11.698;2023-08-08T08:12:01;22.80;44.60
66928;DHT22;59882;45.624;11.698;2023-08-08T08:14:27;22.90;44.70
66928;DHT22;59882;45.624;11.698;2023-08-08T08:16:53;23.00;44.60
66928;DHT22;59882;45.624;11.698;2023-08-08T08:19:19;23.10;44.70
66928;DHT22;59882;45.624;11.698;2023-08-08T08:21:45;23.20;44.70
66928;DHT22;59882;45.624;11.698;2023-08-08T08:24:11;23.30;44.40
66928;DHT22;59882;45.624;11.698;2023-08-08T08:26:36;23.40;44.50
66928;DHT22;59882;45.624;11.698;2023-08-08T08:29:02;23.40;44.50
66928;DHT22;59882;45.624;11.698;2023-08-08T08:31:28;23.40;44.80
66928;DHT22;59882;45.624;11.698;2023-08-08T08:33:54;23.50;45.10
66928;DHT22;59882;45.624;11.698;2023-08-08T08:36:20;23.70;44.30
66928;DHT22;59882;45.624;11.698;2023-08-08T08:38:47;23.70;44.10
66928;DHT22;59882;45.624;11.698;2023-08-08T08:41:17;23.80;44.70
66928;DHT22;59882;45.624;11.698;2023-08-08T08:43:43;23.80;45.40
66928;DHT22;59882;45.624;11.698;2023-08-08T08:46:11;23.90;45.70
66928;DHT22;59882;45.624;11.698;2023-08-08T08:48:37;23.90;46.10
66928;DHT22;59882;45.624;11.698;2023-08-08T08:51:03;23.90;45.20
66928;DHT22;59882;45.624;11.698;2023-08-08T08:53:29;23.90;45.80
66928;DHT22;59882;45.624;11.698;2023-08-08T08:55:56;23.90;45.70
66928;DHT22;59882;45.624;11.698;2023-08-08T08:58:24;24.00;46.10
66928;DHT22;59882;45.624;11.698;2023-08-08T09:00:51;24.00;46.00
66928;DHT22;59882;45.624;11.698;2023-08-08T09:03:17;23.90;45.50
66928;DHT22;59882;45.624;11.698;2023-08-08T09:05:43;23.90;46.00
66928;DHT22;59882;45.624;11.698;2023-08-08T09:08:10;23.90;46.10
66928;DHT22;59882;45.624;11.698;2023-08-08T09:10:37;23.90;46.30
66928;DHT22;59882;45.624;11.698;2023-08-08T09:13:03;23.90;46.50
66928;DHT22;59882;45.624;11.698;2023-08-08T09:15:33;23.90;46.50
66928;DHT22;59882;45.624;11.698;2023-08-08T09:17:59;23.90;46.50
66928;DHT22;59882;45.624;11.698;2023-08-08T09:20:26;23.90;47.00
66928;DHT22;59882;45.624;11.698;2023-08-08T09:22:55;23.90;46.90
66928;DHT22;59882;45.624;11.698;2023-08-08T09:25:21;23.90;46.80
66928;DHT22;59882;45.624;11.698;2023-08-08T09:27:46;23.90;46.90
66928;DHT22;59882;45.624;11.698;2023-08-08T09:30:13;23.90;46.40
66928;DHT22;59882;45.624;11.698;2023-08-08T09:32:39;24.00;47.20
66928;DHT22;59882;45.624;11.698;2023-08-08T09:35:05;24.00;46.90
66928;DHT22;59882;45.624;11.698;2023-08-08T09:37:34;24.00;46.60
66928;DHT22;59882;45.624;11.698;2023-08-08T09:40:02;24.10;47.00
66928;DHT22;59882;45.624;11.698;2023-08-08T09:42:29;24.20;46.90
66928;DHT22;59882;45.624;11.698;2023-08-08T09:44:58;24.20;46.80
66928;DHT22;59882;45.624;11.698;2023-08-08T09:47:25;24.30;47.00
66928;DHT22;59882;45.624;11.698;2023-08-08T09:50:00;24.40;47.50
66928;DHT22;59882;45.624;11.698;2023-08-08T09:52:27;24.40;47.20
66928;DHT22;59882;45.624;11.698;2023-08-08T09:54:53;24.60;47.50
66928;DHT22;59882;45.624;11.698;2023-08-08T09:57:20;24.60;47.60
66928;DHT22;59882;45.624;11.698;2023-08-08T09:59:47;24.70;47.40
66928;DHT22;59882;45.624;11.698;2023-08-08T10:02:14;24.80;48.00
66928;DHT22;59882;45.624;11.698;2023-08-08T10:04:41;24.90;47.60
66928;DHT22;59882;45.624;11.698;2023-08-08T10:07:07;24.90;47.20
66928;DHT22;59882;45.624;11.698;2023-08-08T10:09:33;25.00;47.70
66928;DHT22;59882;45.624;11.698;2023-08-08T10:11:59;25.20;47.20
66928;DHT22;59882;45.624;11.698;2023-08-08T10:14:30;25.20;46.60
66928;DHT22;59882;45.624;11.698;2023-08-08T10:16:56;25.40;46.70
66928;DHT22;59882;45.624;11.698;2023-08-08T10:19:23;25.40;46.70
66928;DHT22;59882;45.624;11.698;2023-08-08T10:21:54;25.40;46.80
66928;DHT22;59882;45.624;11.698;2023-08-08T10:24:21;25.50;46.40
66928;DHT22;59882;45.624;11.698;2023-08-08T10:26:59;25.60;46.50
66928;DHT22;59882;45.624;11.698;2023-08-08T10:29:28;25.60;46.80
66928;DHT22;59882;45.624;11.698;2023-08-08T10:32:02;25.60;46.90
66928;DHT22;59882;45.624;11.698;2023-08-08T10:34:39;25.60;46.40
66928;DHT22;59882;45.624;11.698;2023-08-08T10:37:09;25.60;46.10
66928;DHT22;59882;45.624;11.698;2023-08-08T10:39:36;25.70;45.90
66928;DHT22;59882;45.624;11.698;2023-08-08T10:42:03;25.70;46.10
66928;DHT22;59882;45.624;11.698;2023-08-08T10:44:30;25.80;48.10
66928;DHT22;59882;45.624;11.698;2023-08-08T10:46:56;25.90;47.90
66928;DHT22;59882;45.624;11.698;2023-08-08T10:49:21;25.90;47.70
66928;DHT22;59882;45.624;11.698;2023-08-08T10:51:50;26.00;48.50
66928;DHT22;59882;45.624;11.698;2023-08-08T10:54:22;26.00;48.30
66928;DHT22;59882;45.624;11.698;2023-08-08T10:56:50;26.10;47.90
66928;DHT22;59882;45.624;11.698;2023-08-08T10:59:19;26.20;47.90
66928;DHT22;59882;45.624;11.698;2023-08-08T11:01:45;26.20;47.60
66928;DHT22;59882;45.624;11.698;2023-08-08T11:04:12;26.20;47.70
66928;DHT22;59882;45.624;11.698;2023-08-08T11:06:38;26.20;48.00
66928;DHT22;59882;45.624;11.698;2023-08-08T11:09:08;26.30;49.40
66928;DHT22;59882;45.624;11.698;2023-08-08T11:11:40;26.30;49.30
66928;DHT22;59882;45.624;11.698;2023-08-08T11:14:16;26.40;49.50
66928;DHT22;59882;45.624;11.698;2023-08-08T11:16:43;26.40;49.30
66928;DHT22;59882;45.624;11.698;2023-08-08T11:19:10;26.40;48.50
66928;DHT22;59882;45.624;11.698;2023-08-08T11:21:40;26.40;50.40
66928;DHT22;59882;45.624;11.698;2023-08-08T11:24:06;26.40;48.70
66928;DHT22;59882;45.624;11.698;2023-08-08T11:26:36;26.40;48.50
66928;DHT22;59882;45.624;11.698;2023-08-08T11:29:03;26.40;49.00
66928;DHT22;59882;45.624;11.698;2023-08-08T11:31:30;26.30;50.20
66928;DHT22;59882;45.624;11.698;2023-08-08T11:33:57;26.40;50.70
66928;DHT22;59882;45.624;11.698;2023-08-08T11:36:23;26.40;50.60
66928;DHT22;59882;45.624;11.698;2023-08-08T11:38:52;26.40;49.80
66928;DHT22;59882;45.624;11.698;2023-08-08T11:41:22;26.50;49.30
66928;DHT22;59882;45.624;11.698;2023-08-08T11:43:49;26.50;49.60
66928;DHT22;59882;45.624;11.698;2023-08-08T11:46:15;26.60;48.00
66928;DHT22;59882;45.624;11.698;2023-08-08T11:48:42;26.50;49.60
66928;DHT22;59882;45.624;11.698;2023-08-08T11:51:08;26.50;50.30
66928;DHT22;59882;45.624;11.698;2023-08-08T11:53:35;26.60;50.00
66928;DHT22;59882;45.624;11.698;2023-08-08T11:56:02;26.80;50.50
66928;DHT22;59882;45.624;11.698;2023-08-08T11:58:32;26.90;51.10
66928;DHT22;59882;45.624;11.698;2023-08-08T12:00:57;27.00;49.50
66928;DHT22;59882;45.624;11.698;2023-08-08T12:03:25;27.00;48.20
66928;DHT22;59882;45.624;11.698;2023-08-08T12:05:51;26.90;48.40
66928;DHT22;59882;45.624;11.698;2023-08-08T12:08:21;26.90;48.20
66928;DHT22;59882;45.624;11.698;2023-08-08T12:10:49;26.90;49.20
66928;DHT22;59882;45.624;11.698;2023-08-08T12:13:23;27.00;49.90
66928;DHT22;59882;45.624;11.698;2023-08-08T12:15:49;27.20;50.40
66928;DHT22;59882;45.624;11.698;2023-08-08T12:18:18;27.30;48.10
66928;DHT22;59882;45.624;11.698;2023-08-08T12:20:44;27.40;47.90
66928;DHT22;59882;45.624;11.698;2023-08-08T12:23:10;27.50;49.80
66928;DHT22;59882;45.624;11.698;2023-08-08T12:25:36;27.60;47.70
66928;DHT22;59882;45.624;11.698;2023-08-08T12:28:02;27.70;47.70
66928;DHT22;59882;45.624;11.698;2023-08-08T12:30:28;27.90;50.80
66928;DHT22;59882;45.624;11.698;2023-08-08T12:32:54;28.10;49.50
66928;DHT22;59882;45.624;11.698;2023-08-08T12:35:19;28.30;47.20
66928;DHT22;59882;45.624;11.698;2023-08-08T12:37:46;28.30;48.10
66928;DHT22;59882;45.624;11.698;2023-08-08T12:40:12;28.40;48.20
66928;DHT22;59882;45.624;11.698;2023-08-08T12:42:38;28.40;46.50
66928;DHT22;59882;45.624;11.698;2023-08-08T12:45:05;28.50;46.90
66928;DHT22;59882;45.624;11.698;2023-08-08T12:47:31;28.70;46.70
66928;DHT22;59882;45.624;11.698;2023-08-08T12:49:57;28.80;45.70
66928;DHT22;59882;45.624;11.698;2023-08-08T12:52:23;28.90;47.00
66928;DHT22;59882;45.624;11.698;2023-08-08T12:54:49;29.80;44.20
66928;DHT22;59882;45.624;11.698;2023-08-08T12:57:15;31.90;40.20
66928;DHT22;59882;45.624;11.698;2023-08-08T12:59:40;34.40;35.30
66928;DHT22;59882;45.624;11.698;2023-08-08T13:02:07;36.50;32.90
66928;DHT22;59882;45.624;11.698;2023-08-08T13:04:33;37.40;31.80
66928;DHT22;59882;45.624;11.698;2023-08-08T13:06:58;38.80;30.70
66928;DHT22;59882;45.624;11.698;2023-08-08T13:09:24;40.50;28.80
66928;DHT22;59882;45.624;11.698;2023-08-08T13:11:50;42.10;26.30
66928;DHT22;59882;45.624;11.698;2023-08-08T13:14:15;43.50;25.70
66928;DHT22;59882;45.624;11.698;2023-08-08T13:16:41;44.70;22.80
66928;DHT22;59882;45.624;11.698;2023-08-08T13:19:07;45.60;23.60
66928;DHT22;59882;45.624;11.698;2023-08-08T13:21:33;46.50;22.40
66928;DHT22;59882;45.624;11.698;2023-08-08T13:23:58;47.00;21.10
66928;DHT22;59882;45.624;11.698;2023-08-08T13:26:24;47.70;21.40
66928;DHT22;59882;45.624;11.698;2023-08-08T13:28:50;48.40;21.00
66928;DHT22;59882;45.624;11.698;2023-08-08T13:31:16;48.80;20.80
66928;DHT22;59882;45.624;11.698;2023-08-08T13:33:41;47.50;20.70
66928;DHT22;59882;45.624;11.698;2023-08-08T13:36:07;45.30;21.60
66928;DHT22;59882;45.624;11.698;2023-08-08T13:38:33;43.00;23.30
66928;DHT22;59882;45.624;11.698;2023-08-08T13:40:58;41.10;24.70
66928;DHT22;59882;45.624;11.698;2023-08-08T13:43:26;39.70;26.50
66928;DHT22;59882;45.624;11.698;2023-08-08T13:45:51;39.30;28.20
66928;DHT22;59882;45.624;11.698;2023-08-08T13:48:17;40.80;26.60
66928;DHT22;59882;45.624;11.698;2023-08-08T13:50:43;42.50;24.50
66928;DHT22;59882;45.624;11.698;2023-08-08T13:53:09;43.90;24.10
66928;DHT22;59882;45.624;11.698;2023-08-08T13:55:34;44.50;23.50
66928;DHT22;59882;45.624;11.698;2023-08-08T13:58:05;43.80;23.70
66928;DHT22;59882;45.624;11.698;2023-08-08T14:00:31;43.50;24.20
66928;DHT22;59882;45.624;11.698;2023-08-08T14:02:58;43.90;23.40
66928;DHT22;59882;45.624;11.698;2023-08-08T14:05:24;43.30;23.60
66928;DHT22;59882;45.624;11.698;2023-08-08T14:07:50;42.50;24.50
66928;DHT22;59882;45.624;11.698;2023-08-08T14:10:16;42.50;24.70
66928;DHT22;59882;45.624;11.698;2023-08-08T14:12:41;43.50;23.90
66928;DHT22;59882;45.624;11.698;2023-08-08T14:15:07;44.60;23.70
66928;DHT22;59882;45.624;11.698;2023-08-08T14:17:34;45.50;23.20
66928;DHT22;59882;45.624;11.698;2023-08-08T14:20:00;46.00;22.20
66928;DHT22;59882;45.624;11.698;2023-08-08T14:22:26;46.50;22.20
66928;DHT22;59882;45.624;11.698;2023-08-08T14:24:51;47.00;21.70
66928;DHT22;59882;45.624;11.698;2023-08-08T14:27:17;47.00;21.20
66928;DHT22;59882;45.624;11.698;2023-08-08T14:29:43;47.20;20.70
66928;DHT22;59882;45.624;11.698;2023-08-08T14:32:08;47.00;20.60
66928;DHT22;59882;45.624;11.698;2023-08-08T14:34:34;46.70;21.10
66928;DHT22;59882;45.624;11.698;2023-08-08T14:37:02;46.20;21.00
66928;DHT22;59882;45.624;11.698;2023-08-08T14:39:28;44.90;22.10
66928;DHT22;59882;45.624;11.698;2023-08-08T14:41:55;43.60;23.10
66928;DHT22;59882;45.624;11.698;2023-08-08T14:44:21;42.20;24.10
66928;DHT22;59882;45.624;11.698;2023-08-08T14:46:47;40.90;24.90
66928;DHT22;59882;45.624;11.698;2023-08-08T14:49:13;39.70;26.30
66928;DHT22;59882;45.624;11.698;2023-08-08T14:51:38;38.70;27.40
66928;DHT22;59882;45.624;11.698;2023-08-08T14:54:04;37.80;28.40
66928;DHT22;59882;45.624;11.698;2023-08-08T14:56:30;37.00;29.50
66928;DHT22;59882;45.624;11.698;2023-08-08T14:58:55;36.40;30.50
66928;DHT22;59882;45.624;11.698;2023-08-08T15:01:22;35.70;31.10
66928;DHT22;59882;45.624;11.698;2023-08-08T15:03:47;35.20;31.50
66928;DHT22;59882;45.624;11.698;2023-08-08T15:06:13;34.70;31.90
66928;DHT22;59882;45.624;11.698;2023-08-08T15:08:39;34.20;33.00
66928;DHT22;59882;45.624;11.698;2023-08-08T15:11:04;33.90;33.80
66928;DHT22;59882;45.624;11.698;2023-08-08T15:13:31;33.70;34.00
66928;DHT22;59882;45.624;11.698;2023-08-08T15:15:56;33.50;34.20